sensor_id;sensor_type;location;lat;lon;timestamp;P1;durP1;ratioP1;P2;durP2;ratioP2
60233;SDS011;49514;43.538;-5.708;2023-07-31T00:01:44;10.15;;;3.08;;
60233;SDS011;49514;43.538;-5.708;2023-07-31T00:04:11;9.90;;;3.13;;
60233;SDS011;49514;43.538;-5.708;2023-07-31T00:06:37;8.63;;;3.30;;
60233;SDS011;49514;43.538;-5.708;2023-07-31T00:09:04;10.30;;;3.43;;
60233;SDS011;49514;43.538;-5.708;2023-07-31T00:11:31;10.75;;;3.70;;
60233;SDS011;49514;43.538;-5.708;2023-07-31T00:13:57;11.57;;;3.70;;
60233;SDS011;49514;43.538;-5.708;2023-07-31T00:16:24;9.90;;;3.53;;
60233;SDS011;49514;43.538;-5.708;2023-07-31T00:18:51;10.23;;;3.70;;
60233;SDS011;49514;43.538;-5.708;2023-07-31T00:21:17;10.88;;;3.65;;
60233;SDS011;49514;43.538;-5.708;2023-07-31T00:23:44;14.32;;;3.55;;
60233;SDS011;49514;43.538;-5.708;2023-07-31T00:26:11;11.33;;;3.90;;
60233;SDS011;49514;43.538;-5.708;2023-07-31T00:28:37;15.80;;;4.22;;
60233;SDS011;49514;43.538;-5.708;2023-07-31T00:31:04;12.57;;;3.75;;
60233;SDS011;49514;43.538;-5.708;2023-07-31T00:33:31;16.17;;;4.40;;
60233;SDS011;49514;43.538;-5.708;2023-07-31T00:35:57;18.55;;;4.50;;
60233;SDS011;49514;43.538;-5.708;2023-07-31T00:38:25;18.85;;;4.32;;
60233;SDS011;49514;43.538;-5.708;2023-07-31T00:40:52;13.65;;;4.20;;
60233;SDS011;49514;43.538;-5.708;2023-07-31T00:43:19;15.97;;;4.10;;
60233;SDS011;49514;43.538;-5.708;2023-07-31T00:45:46;13.93;;;4.15;;
60233;SDS011;49514;43.538;-5.708;2023-07-31T00:48:12;14.88;;;4.10;;
60233;SDS011;49514;43.538;-5.708;2023-07-31T00:50:39;11.23;;;3.67;;
60233;SDS011;49514;43.538;-5.708;2023-07-31T00:53:07;11.13;;;3.67;;
60233;SDS011;49514;43.538;-5.708;2023-07-31T00:55:33;10.83;;;3.17;;
60233;SDS011;49514;43.538;-5.708;2023-07-31T00:58:00;15.82;;;4.32;;
60233;SDS011;49514;43.538;-5.708;2023-07-31T01:00:26;11.68;;;3.92;;
60233;SDS011;49514;43.538;-5.708;2023-07-31T01:02:53;16.10;;;4.32;;
60233;SDS011;49514;43.538;-5.708;2023-07-31T01:05:23;11.35;;;3.58;;
60233;SDS011;49514;43.538;-5.708;2023-07-31T01:08:11;15.53;;;4.20;;
60233;SDS011;49514;43.538;-5.708;2023-07-31T01:11:02;15.55;;;4.35;;
60233;SDS011;49514;43.538;-5.708;2023-07-31T01:13:42;15.07;;;4.20;;
60233;SDS011;49514;43.538;-5.708;2023-07-31T01:16:11;16.55;;;4.63;;
60233;SDS011;49514;43.538;-5.708;2023-07-31T01:18:38;13.10;;;4.22;;
60233;SDS011;49514;43.538;-5.708;2023-07-31T01:21:17;11.37;;;4.00;;
60233;SDS011;49514;43.538;-5.708;2023-07-31T01:23:51;11.63;;;4.03;;
60233;SDS011;49514;43.538;-5.708;2023-07-31T01:26:34;11.30;;;3.92;;
60233;SDS011;49514;43.538;-5.708;2023-07-31T01:29:20;9.57;;;3.88;;
60233;SDS011;49514;43.538;-5.708;2023-07-31T01:32:02;10.32;;;3.85;;
60233;SDS011;49514;43.538;-5.708;2023-07-31T01:34:30;11.23;;;3.73;;
60233;SDS011;49514;43.538;-5.708;2023-07-31T01:36:58;9.93;;;3.78;;
60233;SDS011;49514;43.538;-5.708;2023-07-31T01:39:25;10.43;;;4.10;;
60233;SDS011;49514;43.538;-5.708;2023-07-31T01:41:52;13.82;;;4.40;;
60233;SDS011;49514;43.538;-5.708;2023-07-31T01:44:18;16.87;;;5.37;;
60233;SDS011;49514;43.538;-5.708;2023-07-31T01:46:45;18.08;;;5.00;;
60233;SDS011;49514;43.538;-5.708;2023-07-31T01:49:12;16.67;;;5.15;;
60233;SDS011;49514;43.538;-5.708;2023-07-31T01:51:39;15.27;;;4.40;;
60233;SDS011;49514;43.538;-5.708;2023-07-31T01:54:07;17.20;;;5.17;;
60233;SDS011;49514;43.538;-5.708;2023-07-31T01:56:34;18.70;;;5.00;;
60233;SDS011;49514;43.538;-5.708;2023-07-31T01:59:00;14.30;;;4.40;;
60233;SDS011;49514;43.538;-5.708;2023-07-31T02:01:27;12.25;;;4.35;;
60233;SDS011;49514;43.538;-5.708;2023-07-31T02:03:53;12.35;;;4.20;;
60233;SDS011;49514;43.538;-5.708;2023-07-31T02:06:22;9.57;;;3.90;;
60233;SDS011;49514;43.538;-5.708;2023-07-31T02:08:49;8.55;;;3.80;;
60233;SDS011;49514;43.538;-5.708;2023-07-31T02:11:16;11.90;;;4.05;;
60233;SDS011;49514;43.538;-5.708;2023-07-31T02:13:43;11.83;;;4.10;;
60233;SDS011;49514;43.538;-5.708;2023-07-31T02:16:09;10.05;;;4.07;;
60233;SDS011;49514;43.538;-5.708;2023-07-31T02:18:36;11.63;;;4.53;;
60233;SDS011;49514;43.538;-5.708;2023-07-31T02:21:03;10.90;;;4.57;;
60233;SDS011;49514;43.538;-5.708;2023-07-31T02:23:29;13.93;;;4.93;;
60233;SDS011;49514;43.538;-5.708;2023-07-31T02:25:56;18.92;;;5.53;;
60233;SDS011;49514;43.538;-5.708;2023-07-31T02:28:22;15.00;;;5.07;;
60233;SDS011;49514;43.538;-5.708;2023-07-31T02:30:50;11.35;;;4.53;;
60233;SDS011;49514;43.538;-5.708;2023-07-31T02:33:18;9.63;;;4.13;;
60233;SDS011;49514;43.538;-5.708;2023-07-31T02:35:46;11.85;;;4.07;;
60233;SDS011;49514;43.538;-5.708;2023-07-31T02:38:13;11.45;;;3.85;;
60233;SDS011;49514;43.538;-5.708;2023-07-31T02:40:40;10.60;;;4.05;;
60233;SDS011;49514;43.538;-5.708;2023-07-31T02:43:09;13.55;;;4.25;;
60233;SDS011;49514;43.538;-5.708;2023-07-31T02:45:36;12.27;;;4.35;;
60233;SDS011;49514;43.538;-5.708;2023-07-31T02:48:03;12.52;;;4.60;;
60233;SDS011;49514;43.538;-5.708;2023-07-31T02:50:29;20.55;;;4.90;;
60233;SDS011;49514;43.538;-5.708;2023-07-31T02:52:57;11.82;;;4.30;;
60233;SDS011;49514;43.538;-5.708;2023-07-31T02:55:24;13.57;;;4.18;;
60233;SDS011;49514;43.538;-5.708;2023-07-31T02:57:51;17.53;;;3.87;;
60233;SDS011;49514;43.538;-5.708;2023-07-31T03:03:09;13.73;;;4.32;;
60233;SDS011;49514;43.538;-5.708;2023-07-31T03:05:36;10.37;;;4.10;;
60233;SDS011;49514;43.538;-5.708;2023-07-31T03:08:03;12.63;;;4.35;;
60233;SDS011;49514;43.538;-5.708;2023-07-31T03:10:30;12.55;;;4.30;;
60233;SDS011;49514;43.538;-5.708;2023-07-31T03:12:56;13.25;;;3.90;;
60233;SDS011;49514;43.538;-5.708;2023-07-31T03:15:23;12.55;;;4.32;;
60233;SDS011;49514;43.538;-5.708;2023-07-31T03:17:50;24.98;;;15.68;;
60233;SDS011;49514;43.538;-5.708;2023-07-31T03:20:16;24.47;;;16.50;;
60233;SDS011;49514;43.538;-5.708;2023-07-31T03:22:43;26.15;;;16.30;;
60233;SDS011;49514;43.538;-5.708;2023-07-31T03:25:10;23.00;;;14.10;;
60233;SDS011;49514;43.538;-5.708;2023-07-31T03:27:37;18.13;;;9.68;;
60233;SDS011;49514;43.538;-5.708;2023-07-31T03:30:04;17.13;;;7.43;;
60233;SDS011;49514;43.538;-5.708;2023-07-31T03:32:32;15.90;;;6.70;;
60233;SDS011;49514;43.538;-5.708;2023-07-31T03:34:58;16.98;;;4.80;;
60233;SDS011;49514;43.538;-5.708;2023-07-31T03:37:26;12.07;;;4.00;;
60233;SDS011;49514;43.538;-5.708;2023-07-31T03:39:53;11.48;;;4.03;;
60233;SDS011;49514;43.538;-5.708;2023-07-31T03:42:19;10.80;;;3.83;;
60233;SDS011;49514;43.538;-5.708;2023-07-31T03:44:46;11.98;;;3.90;;
60233;SDS011;49514;43.538;-5.708;2023-07-31T03:47:13;10.70;;;4.07;;
60233;SDS011;49514;43.538;-5.708;2023-07-31T03:49:39;12.00;;;3.88;;
60233;SDS011;49514;43.538;-5.708;2023-07-31T03:52:06;11.82;;;4.22;;
60233;SDS011;49514;43.538;-5.708;2023-07-31T03:54:33;13.30;;;4.57;;
60233;SDS011;49514;43.538;-5.708;2023-07-31T03:57:00;15.57;;;4.60;;
60233;SDS011;49514;43.538;-5.708;2023-07-31T03:59:26;15.52;;;5.28;;
60233;SDS011;49514;43.538;-5.708;2023-07-31T04:01:53;14.93;;;4.63;;
60233;SDS011;49514;43.538;-5.708;2023-07-31T04:04:19;12.45;;;4.60;;
60233;SDS011;49514;43.538;-5.708;2023-07-31T04:06:46;16.23;;;4.67;;
60233;SDS011;49514;43.538;-5.708;2023-07-31T04:09:12;14.38;;;4.57;;
60233;SDS011;49514;43.538;-5.708;2023-07-31T04:11:39;11.20;;;4.60;;
60233;SDS011;49514;43.538;-5.708;2023-07-31T04:14:05;11.40;;;4.38;;
60233;SDS011;49514;43.538;-5.708;2023-07-31T04:16:32;12.88;;;4.18;;
60233;SDS011;49514;43.538;-5.708;2023-07-31T04:18:58;15.02;;;4.45;;
60233;SDS011;49514;43.538;-5.708;2023-07-31T04:21:25;16.77;;;4.50;;
60233;SDS011;49514;43.538;-5.708;2023-07-31T04:23:52;13.90;;;4.13;;
60233;SDS011;49514;43.538;-5.708;2023-07-31T04:26:21;11.63;;;4.23;;
60233;SDS011;49514;43.538;-5.708;2023-07-31T04:28:48;13.45;;;4.45;;
60233;SDS011;49514;43.538;-5.708;2023-07-31T04:31:15;13.88;;;4.90;;
60233;SDS011;49514;43.538;-5.708;2023-07-31T04:33:41;17.13;;;5.30;;
60233;SDS011;49514;43.538;-5.708;2023-07-31T04:36:08;19.50;;;5.73;;
60233;SDS011;49514;43.538;-5.708;2023-07-31T04:38:34;15.73;;;5.32;;
60233;SDS011;49514;43.538;-5.708;2023-07-31T04:41:01;21.10;;;5.90;;
60233;SDS011;49514;43.538;-5.708;2023-07-31T04:43:27;18.90;;;5.90;;
60233;SDS011;49514;43.538;-5.708;2023-07-31T04:45:54;21.40;;;5.68;;
60233;SDS011;49514;43.538;-5.708;2023-07-31T04:48:21;21.08;;;5.95;;
60233;SDS011;49514;43.538;-5.708;2023-07-31T04:50:47;21.05;;;5.15;;
60233;SDS011;49514;43.538;-5.708;2023-07-31T04:53:14;15.17;;;4.80;;
60233;SDS011;49514;43.538;-5.708;2023-07-31T04:55:41;14.52;;;4.35;;
60233;SDS011;49514;43.538;-5.708;2023-07-31T04:58:07;14.60;;;4.80;;
60233;SDS011;49514;43.538;-5.708;2023-07-31T05:00:37;15.05;;;5.25;;
60233;SDS011;49514;43.538;-5.708;2023-07-31T05:03:04;14.68;;;5.03;;
60233;SDS011;49514;43.538;-5.708;2023-07-31T05:05:30;18.90;;;5.20;;
60233;SDS011;49514;43.538;-5.708;2023-07-31T05:07:57;22.95;;;6.40;;
60233;SDS011;49514;43.538;-5.708;2023-07-31T05:10:24;24.33;;;6.10;;
60233;SDS011;49514;43.538;-5.708;2023-07-31T05:12:50;23.37;;;5.80;;
60233;SDS011;49514;43.538;-5.708;2023-07-31T05:15:17;22.60;;;5.57;;
60233;SDS011;49514;43.538;-5.708;2023-07-31T05:17:43;23.90;;;5.47;;
60233;SDS011;49514;43.538;-5.708;2023-07-31T05:20:10;16.92;;;4.50;;
60233;SDS011;49514;43.538;-5.708;2023-07-31T05:22:37;13.98;;;4.47;;
60233;SDS011;49514;43.538;-5.708;2023-07-31T05:25:04;20.27;;;5.90;;
60233;SDS011;49514;43.538;-5.708;2023-07-31T05:27:31;18.08;;;6.20;;
60233;SDS011;49514;43.538;-5.708;2023-07-31T05:29:58;17.27;;;5.82;;
60233;SDS011;49514;43.538;-5.708;2023-07-31T05:32:24;17.83;;;5.88;;
60233;SDS011;49514;43.538;-5.708;2023-07-31T05:34:51;19.02;;;5.20;;
60233;SDS011;49514;43.538;-5.708;2023-07-31T05:37:19;14.53;;;5.20;;
60233;SDS011;49514;43.538;-5.708;2023-07-31T05:39:46;16.63;;;4.80;;
60233;SDS011;49514;43.538;-5.708;2023-07-31T05:42:12;12.02;;;4.88;;
60233;SDS011;49514;43.538;-5.708;2023-07-31T05:44:39;14.25;;;5.00;;
60233;SDS011;49514;43.538;-5.708;2023-07-31T05:47:06;11.83;;;4.63;;
60233;SDS011;49514;43.538;-5.708;2023-07-31T05:49:32;15.90;;;5.30;;
60233;SDS011;49514;43.538;-5.708;2023-07-31T05:51:59;17.58;;;4.88;;
60233;SDS011;49514;43.538;-5.708;2023-07-31T05:54:26;18.45;;;4.90;;
60233;SDS011;49514;43.538;-5.708;2023-07-31T05:56:52;20.53;;;5.67;;
60233;SDS011;49514;43.538;-5.708;2023-07-31T05:59:19;16.25;;;5.18;;
60233;SDS011;49514;43.538;-5.708;2023-07-31T06:01:45;15.88;;;5.60;;
60233;SDS011;49514;43.538;-5.708;2023-07-31T06:04:12;16.52;;;5.28;;
60233;SDS011;49514;43.538;-5.708;2023-07-31T06:06:39;17.35;;;5.30;;
60233;SDS011;49514;43.538;-5.708;2023-07-31T06:09:05;15.50;;;5.07;;
60233;SDS011;49514;43.538;-5.708;2023-07-31T06:11:32;18.03;;;5.20;;
60233;SDS011;49514;43.538;-5.708;2023-07-31T06:13:59;16.98;;;5.72;;
60233;SDS011;49514;43.538;-5.708;2023-07-31T06:16:25;15.23;;;5.60;;
60233;SDS011;49514;43.538;-5.708;2023-07-31T06:18:53;18.23;;;6.17;;
60233;SDS011;49514;43.538;-5.708;2023-07-31T06:21:19;22.88;;;6.45;;
60233;SDS011;49514;43.538;-5.708;2023-07-31T06:23:46;20.30;;;6.40;;
60233;SDS011;49514;43.538;-5.708;2023-07-31T06:26:12;16.73;;;6.65;;
60233;SDS011;49514;43.538;-5.708;2023-07-31T06:28:39;14.23;;;6.10;;
60233;SDS011;49514;43.538;-5.708;2023-07-31T06:31:06;16.67;;;5.75;;
60233;SDS011;49514;43.538;-5.708;2023-07-31T06:33:32;16.25;;;5.00;;
60233;SDS011;49514;43.538;-5.708;2023-07-31T06:35:59;15.73;;;5.75;;
60233;SDS011;49514;43.538;-5.708;2023-07-31T06:38:26;13.40;;;5.27;;
60233;SDS011;49514;43.538;-5.708;2023-07-31T06:40:53;14.03;;;5.00;;
60233;SDS011;49514;43.538;-5.708;2023-07-31T06:43:20;11.93;;;4.75;;
60233;SDS011;49514;43.538;-5.708;2023-07-31T06:45:46;13.60;;;5.35;;
60233;SDS011;49514;43.538;-5.708;2023-07-31T06:48:16;16.93;;;5.43;;
60233;SDS011;49514;43.538;-5.708;2023-07-31T06:50:43;29.92;;;7.15;;
60233;SDS011;49514;43.538;-5.708;2023-07-31T06:53:10;20.42;;;6.68;;
60233;SDS011;49514;43.538;-5.708;2023-07-31T06:55:36;18.55;;;6.68;;
60233;SDS011;49514;43.538;-5.708;2023-07-31T06:58:03;19.75;;;6.75;;
60233;SDS011;49514;43.538;-5.708;2023-07-31T07:00:29;21.63;;;6.65;;
60233;SDS011;49514;43.538;-5.708;2023-07-31T07:02:56;17.80;;;6.50;;
60233;SDS011;49514;43.538;-5.708;2023-07-31T07:05:23;19.08;;;6.75;;
60233;SDS011;49514;43.538;-5.708;2023-07-31T07:07:50;29.15;;;8.45;;
60233;SDS011;49514;43.538;-5.708;2023-07-31T07:10:19;27.55;;;8.02;;
60233;SDS011;49514;43.538;-5.708;2023-07-31T07:12:46;28.55;;;7.47;;
60233;SDS011;49514;43.538;-5.708;2023-07-31T07:15:12;24.63;;;7.97;;
60233;SDS011;49514;43.538;-5.708;2023-07-31T07:17:39;22.30;;;8.30;;
60233;SDS011;49514;43.538;-5.708;2023-07-31T07:20:06;19.95;;;8.65;;
60233;SDS011;49514;43.538;-5.708;2023-07-31T07:22:33;28.50;;;13.15;;
60233;SDS011;49514;43.538;-5.708;2023-07-31T07:25:00;19.00;;;7.63;;
60233;SDS011;49514;43.538;-5.708;2023-07-31T07:27:27;14.27;;;7.30;;
60233;SDS011;49514;43.538;-5.708;2023-07-31T07:29:53;15.15;;;7.28;;
60233;SDS011;49514;43.538;-5.708;2023-07-31T07:32:20;18.42;;;6.80;;
60233;SDS011;49514;43.538;-5.708;2023-07-31T07:34:47;9.00;;;5.00;;
60233;SDS011;49514;43.538;-5.708;2023-07-31T07:37:14;14.43;;;5.40;;
60233;SDS011;49514;43.538;-5.708;2023-07-31T07:39:41;12.33;;;5.57;;
60233;SDS011;49514;43.538;-5.708;2023-07-31T07:42:08;14.10;;;6.55;;
60233;SDS011;49514;43.538;-5.708;2023-07-31T07:44:34;19.48;;;7.80;;
60233;SDS011;49514;43.538;-5.708;2023-07-31T07:47:01;17.67;;;6.53;;
60233;SDS011;49514;43.538;-5.708;2023-07-31T07:49:28;16.35;;;6.60;;
60233;SDS011;49514;43.538;-5.708;2023-07-31T07:51:55;16.40;;;6.70;;
60233;SDS011;49514;43.538;-5.708;2023-07-31T07:54:22;9.73;;;4.63;;
60233;SDS011;49514;43.538;-5.708;2023-07-31T07:56:49;11.95;;;5.45;;
60233;SDS011;49514;43.538;-5.708;2023-07-31T07:59:16;16.88;;;7.00;;
60233;SDS011;49514;43.538;-5.708;2023-07-31T08:01:42;18.30;;;6.60;;
60233;SDS011;49514;43.538;-5.708;2023-07-31T08:04:09;17.55;;;6.30;;
60233;SDS011;49514;43.538;-5.708;2023-07-31T08:06:35;16.35;;;6.70;;
60233;SDS011;49514;43.538;-5.708;2023-07-31T08:09:02;14.70;;;6.72;;
60233;SDS011;49514;43.538;-5.708;2023-07-31T08:11:32;20.73;;;9.90;;
60233;SDS011;49514;43.538;-5.708;2023-07-31T08:13:59;17.80;;;9.13;;
60233;SDS011;49514;43.538;-5.708;2023-07-31T08:16:26;15.03;;;6.90;;
60233;SDS011;49514;43.538;-5.708;2023-07-31T08:18:53;17.58;;;6.88;;
60233;SDS011;49514;43.538;-5.708;2023-07-31T08:21:19;15.82;;;7.53;;
60233;SDS011;49514;43.538;-5.708;2023-07-31T08:23:47;17.63;;;7.32;;
60233;SDS011;49514;43.538;-5.708;2023-07-31T08:26:14;16.08;;;7.68;;
60233;SDS011;49514;43.538;-5.708;2023-07-31T08:28:42;15.87;;;6.90;;
60233;SDS011;49514;43.538;-5.708;2023-07-31T08:31:09;11.15;;;4.45;;
60233;SDS011;49514;43.538;-5.708;2023-07-31T08:33:37;14.43;;;5.80;;
60233;SDS011;49514;43.538;-5.708;2023-07-31T08:36:04;12.70;;;5.60;;
60233;SDS011;49514;43.538;-5.708;2023-07-31T08:38:31;14.52;;;5.65;;
60233;SDS011;49514;43.538;-5.708;2023-07-31T08:40:58;11.90;;;3.80;;
60233;SDS011;49514;43.538;-5.708;2023-07-31T08:43:25;8.73;;;3.60;;
60233;SDS011;49514;43.538;-5.708;2023-07-31T08:45:53;10.25;;;3.80;;
60233;SDS011;49514;43.538;-5.708;2023-07-31T08:48:23;6.30;;;3.25;;
60233;SDS011;49514;43.538;-5.708;2023-07-31T08:50:53;11.70;;;4.00;;
60233;SDS011;49514;43.538;-5.708;2023-07-31T08:53:20;14.27;;;4.28;;
60233;SDS011;49514;43.538;-5.708;2023-07-31T08:55:47;10.45;;;3.80;;
60233;SDS011;49514;43.538;-5.708;2023-07-31T08:58:15;7.88;;;3.60;;
60233;SDS011;49514;43.538;-5.708;2023-07-31T09:00:45;12.75;;;3.78;;
60233;SDS011;49514;43.538;-5.708;2023-07-31T09:03:14;8.50;;;3.20;;
60233;SDS011;49514;43.538;-5.708;2023-07-31T09:05:42;9.45;;;3.95;;
60233;SDS011;49514;43.538;-5.708;2023-07-31T09:08:11;14.32;;;4.50;;
60233;SDS011;49514;43.538;-5.708;2023-07-31T09:10:42;9.88;;;3.85;;
60233;SDS011;49514;43.538;-5.708;2023-07-31T09:13:12;10.80;;;4.20;;
60233;SDS011;49514;43.538;-5.708;2023-07-31T09:15:39;13.67;;;4.70;;
60233;SDS011;49514;43.538;-5.708;2023-07-31T09:18:08;10.40;;;4.20;;
60233;SDS011;49514;43.538;-5.708;2023-07-31T09:20:35;10.25;;;4.00;;
60233;SDS011;49514;43.538;-5.708;2023-07-31T09:23:10;8.32;;;3.28;;
60233;SDS011;49514;43.538;-5.708;2023-07-31T09:25:39;11.48;;;3.70;;
60233;SDS011;49514;43.538;-5.708;2023-07-31T09:28:09;8.50;;;3.60;;
60233;SDS011;49514;43.538;-5.708;2023-07-31T09:30:46;10.07;;;4.00;;
60233;SDS011;49514;43.538;-5.708;2023-07-31T09:33:14;11.00;;;4.75;;
60233;SDS011;49514;43.538;-5.708;2023-07-31T09:35:41;9.50;;;4.10;;
60233;SDS011;49514;43.538;-5.708;2023-07-31T09:38:09;9.70;;;3.80;;
60233;SDS011;49514;43.538;-5.708;2023-07-31T09:40:41;7.85;;;3.90;;
60233;SDS011;49514;43.538;-5.708;2023-07-31T09:43:10;13.00;;;5.40;;
60233;SDS011;49514;43.538;-5.708;2023-07-31T09:45:39;12.68;;;4.45;;
60233;SDS011;49514;43.538;-5.708;2023-07-31T09:48:07;8.97;;;4.30;;
60233;SDS011;49514;43.538;-5.708;2023-07-31T09:50:41;12.07;;;4.68;;
60233;SDS011;49514;43.538;-5.708;2023-07-31T09:53:10;8.90;;;3.63;;
60233;SDS011;49514;43.538;-5.708;2023-07-31T09:55:38;9.23;;;3.60;;
60233;SDS011;49514;43.538;-5.708;2023-07-31T09:58:06;10.82;;;3.80;;
60233;SDS011;49514;43.538;-5.708;2023-07-31T10:00:35;9.05;;;4.13;;
60233;SDS011;49514;43.538;-5.708;2023-07-31T10:03:06;11.27;;;4.10;;
60233;SDS011;49514;43.538;-5.708;2023-07-31T10:05:40;9.33;;;3.80;;
60233;SDS011;49514;43.538;-5.708;2023-07-31T10:08:10;8.68;;;3.75;;
60233;SDS011;49514;43.538;-5.708;2023-07-31T10:10:43;8.57;;;3.37;;
60233;SDS011;49514;43.538;-5.708;2023-07-31T10:13:14;9.73;;;3.60;;
60233;SDS011;49514;43.538;-5.708;2023-07-31T10:15:42;8.40;;;3.83;;
60233;SDS011;49514;43.538;-5.708;2023-07-31T10:18:09;9.67;;;3.70;;
60233;SDS011;49514;43.538;-5.708;2023-07-31T10:20:37;9.75;;;3.50;;
60233;SDS011;49514;43.538;-5.708;2023-07-31T10:23:04;7.25;;;3.38;;
60233;SDS011;49514;43.538;-5.708;2023-07-31T10:25:32;9.93;;;3.43;;
60233;SDS011;49514;43.538;-5.708;2023-07-31T10:28:00;9.82;;;3.70;;
60233;SDS011;49514;43.538;-5.708;2023-07-31T10:30:27;9.73;;;3.60;;
60233;SDS011;49514;43.538;-5.708;2023-07-31T10:32:56;9.55;;;3.60;;
60233;SDS011;49514;43.538;-5.708;2023-07-31T10:35:24;10.32;;;3.72;;
60233;SDS011;49514;43.538;-5.708;2023-07-31T10:37:51;7.45;;;3.20;;
60233;SDS011;49514;43.538;-5.708;2023-07-31T10:40:19;11.00;;;3.10;;
60233;SDS011;49514;43.538;-5.708;2023-07-31T10:42:52;8.83;;;3.50;;
60233;SDS011;49514;43.538;-5.708;2023-07-31T10:45:38;8.90;;;3.17;;
60233;SDS011;49514;43.538;-5.708;2023-07-31T10:48:14;7.43;;;3.40;;
60233;SDS011;49514;43.538;-5.708;2023-07-31T10:50:46;9.53;;;3.10;;
60233;SDS011;49514;43.538;-5.708;2023-07-31T10:53:22;12.03;;;3.30;;
60233;SDS011;49514;43.538;-5.708;2023-07-31T10:55:50;8.27;;;3.30;;
60233;SDS011;49514;43.538;-5.708;2023-07-31T10:58:18;12.23;;;3.63;;
60233;SDS011;49514;43.538;-5.708;2023-07-31T11:00:49;11.70;;;3.25;;
60233;SDS011;49514;43.538;-5.708;2023-07-31T11:03:19;9.90;;;3.03;;
60233;SDS011;49514;43.538;-5.708;2023-07-31T11:05:52;8.75;;;3.15;;
60233;SDS011;49514;43.538;-5.708;2023-07-31T11:08:26;10.30;;;3.35;;
60233;SDS011;49514;43.538;-5.708;2023-07-31T11:13:41;8.48;;;2.95;;
60233;SDS011;49514;43.538;-5.708;2023-07-31T11:16:09;9.98;;;3.17;;
60233;SDS011;49514;43.538;-5.708;2023-07-31T11:18:41;7.90;;;3.20;;
60233;SDS011;49514;43.538;-5.708;2023-07-31T11:21:12;10.30;;;2.92;;
60233;SDS011;49514;43.538;-5.708;2023-07-31T11:23:41;10.10;;;3.13;;
60233;SDS011;49514;43.538;-5.708;2023-07-31T11:26:11;5.68;;;2.60;;
60233;SDS011;49514;43.538;-5.708;2023-07-31T11:28:38;8.07;;;2.80;;
60233;SDS011;49514;43.538;-5.708;2023-07-31T11:31:05;8.95;;;2.92;;
60233;SDS011;49514;43.538;-5.708;2023-07-31T11:33:35;9.95;;;3.70;;
60233;SDS011;49514;43.538;-5.708;2023-07-31T11:36:02;10.83;;;2.80;;
60233;SDS011;49514;43.538;-5.708;2023-07-31T11:38:30;7.20;;;2.80;;
60233;SDS011;49514;43.538;-5.708;2023-07-31T11:41:01;6.90;;;2.75;;
60233;SDS011;49514;43.538;-5.708;2023-07-31T11:43:29;7.17;;;2.60;;
60233;SDS011;49514;43.538;-5.708;2023-07-31T11:46:00;7.45;;;2.50;;
60233;SDS011;49514;43.538;-5.708;2023-07-31T11:48:32;6.05;;;2.45;;
60233;SDS011;49514;43.538;-5.708;2023-07-31T11:51:02;8.05;;;2.70;;
60233;SDS011;49514;43.538;-5.708;2023-07-31T11:53:38;9.38;;;2.40;;
60233;SDS011;49514;43.538;-5.708;2023-07-31T11:56:17;6.07;;;2.30;;
60233;SDS011;49514;43.538;-5.708;2023-07-31T11:59:19;6.80;;;2.60;;
60233;SDS011;49514;43.538;-5.708;2023-07-31T12:01:38;9.25;;;2.60;;
60233;SDS011;49514;43.538;-5.708;2023-07-31T12:04:05;8.37;;;2.70;;
60233;SDS011;49514;43.538;-5.708;2023-07-31T12:06:33;6.97;;;2.72;;
60233;SDS011;49514;43.538;-5.708;2023-07-31T12:09:02;6.20;;;2.53;;
60233;SDS011;49514;43.538;-5.708;2023-07-31T12:11:29;8.75;;;2.80;;
60233;SDS011;49514;43.538;-5.708;2023-07-31T12:13:56;8.03;;;2.57;;
60233;SDS011;49514;43.538;-5.708;2023-07-31T12:16:25;10.10;;;2.70;;
60233;SDS011;49514;43.538;-5.708;2023-07-31T12:18:53;7.63;;;2.63;;
60233;SDS011;49514;43.538;-5.708;2023-07-31T12:21:20;6.93;;;2.60;;
60233;SDS011;49514;43.538;-5.708;2023-07-31T12:23:47;9.38;;;2.42;;
60233;SDS011;49514;43.538;-5.708;2023-07-31T12:26:14;6.43;;;2.10;;
60233;SDS011;49514;43.538;-5.708;2023-07-31T12:28:46;7.97;;;2.87;;
60233;SDS011;49514;43.538;-5.708;2023-07-31T12:31:20;6.30;;;2.40;;
60233;SDS011;49514;43.538;-5.708;2023-07-31T12:33:49;6.43;;;2.20;;
60233;SDS011;49514;43.538;-5.708;2023-07-31T12:36:17;8.07;;;2.55;;
60233;SDS011;49514;43.538;-5.708;2023-07-31T12:38:47;5.32;;;2.30;;
60233;SDS011;49514;43.538;-5.708;2023-07-31T12:41:14;6.83;;;2.50;;
60233;SDS011;49514;43.538;-5.708;2023-07-31T12:43:41;6.38;;;2.53;;
60233;SDS011;49514;43.538;-5.708;2023-07-31T12:46:08;6.70;;;2.50;;
60233;SDS011;49514;43.538;-5.708;2023-07-31T12:48:36;6.40;;;2.33;;
60233;SDS011;49514;43.538;-5.708;2023-07-31T12:51:03;5.25;;;2.30;;
60233;SDS011;49514;43.538;-5.708;2023-07-31T12:53:30;5.88;;;2.40;;
60233;SDS011;49514;43.538;-5.708;2023-07-31T12:55:57;5.22;;;2.00;;
60233;SDS011;49514;43.538;-5.708;2023-07-31T12:58:24;6.18;;;2.10;;
60233;SDS011;49514;43.538;-5.708;2023-07-31T13:00:51;3.97;;;1.90;;
60233;SDS011;49514;43.538;-5.708;2023-07-31T13:03:18;5.75;;;1.98;;
60233;SDS011;49514;43.538;-5.708;2023-07-31T13:05:44;7.75;;;1.58;;
60233;SDS011;49514;43.538;-5.708;2023-07-31T13:08:11;3.88;;;1.42;;
60233;SDS011;49514;43.538;-5.708;2023-07-31T13:10:38;3.72;;;1.48;;
60233;SDS011;49514;43.538;-5.708;2023-07-31T13:13:06;3.55;;;1.35;;
60233;SDS011;49514;43.538;-5.708;2023-07-31T13:15:32;2.28;;;1.00;;
60233;SDS011;49514;43.538;-5.708;2023-07-31T13:17:59;4.38;;;1.10;;
60233;SDS011;49514;43.538;-5.708;2023-07-31T13:20:26;2.80;;;1.20;;
60233;SDS011;49514;43.538;-5.708;2023-07-31T13:22:52;3.83;;;1.00;;
60233;SDS011;49514;43.538;-5.708;2023-07-31T13:25:19;6.78;;;1.60;;
60233;SDS011;49514;43.538;-5.708;2023-07-31T13:27:46;3.05;;;1.33;;
60233;SDS011;49514;43.538;-5.708;2023-07-31T19:18:12;3.78;;;1.40;;
60233;SDS011;49514;43.538;-5.708;2023-07-31T19:20:38;3.25;;;1.30;;
60233;SDS011;49514;43.538;-5.708;2023-07-31T19:23:06;4.03;;;1.48;;
60233;SDS011;49514;43.538;-5.708;2023-07-31T19:25:33;6.32;;;1.85;;
60233;SDS011;49514;43.538;-5.708;2023-07-31T19:28:01;7.00;;;1.73;;
60233;SDS011;49514;43.538;-5.708;2023-07-31T19:30:27;7.15;;;1.80;;
60233;SDS011;49514;43.538;-5.708;2023-07-31T19:32:54;5.95;;;1.80;;
60233;SDS011;49514;43.538;-5.708;2023-07-31T19:35:24;4.28;;;1.55;;
60233;SDS011;49514;43.538;-5.708;2023-07-31T19:37:51;7.28;;;1.90;;
60233;SDS011;49514;43.538;-5.708;2023-07-31T19:40:19;4.18;;;1.20;;
60233;SDS011;49514;43.538;-5.708;2023-07-31T19:42:49;4.05;;;1.65;;
60233;SDS011;49514;43.538;-5.708;2023-07-31T19:45:17;4.10;;;1.67;;
60233;SDS011;49514;43.538;-5.708;2023-07-31T19:47:44;5.60;;;1.42;;
60233;SDS011;49514;43.538;-5.708;2023-07-31T19:50:12;6.78;;;1.60;;
60233;SDS011;49514;43.538;-5.708;2023-07-31T19:52:39;3.75;;;1.40;;
60233;SDS011;49514;43.538;-5.708;2023-07-31T19:55:07;4.65;;;1.52;;
60233;SDS011;49514;43.538;-5.708;2023-07-31T19:57:36;6.47;;;1.83;;
60233;SDS011;49514;43.538;-5.708;2023-07-31T20:00:04;8.10;;;1.80;;
60233;SDS011;49514;43.538;-5.708;2023-07-31T20:44:58;9.20;;;2.80;;
60233;SDS011;49514;43.538;-5.708;2023-07-31T20:47:25;8.75;;;2.92;;
60233;SDS011;49514;43.538;-5.708;2023-07-31T20:49:53;9.40;;;2.90;;
60233;SDS011;49514;43.538;-5.708;2023-07-31T20:52:20;8.43;;;2.50;;
60233;SDS011;49514;43.538;-5.708;2023-07-31T20:54:48;10.02;;;2.72;;
60233;SDS011;49514;43.538;-5.708;2023-07-31T20:57:19;9.32;;;2.45;;
60233;SDS011;49514;43.538;-5.708;2023-07-31T20:59:46;11.27;;;2.85;;
60233;SDS011;49514;43.538;-5.708;2023-07-31T21:02:13;13.52;;;3.13;;
60233;SDS011;49514;43.538;-5.708;2023-07-31T21:04:40;9.88;;;2.95;;
60233;SDS011;49514;43.538;-5.708;2023-07-31T21:07:07;14.48;;;2.78;;